Time;durP1;ratioP1;P1;durP2;ratioP2;P2;SDS_P1;SDS_P2;PMS_P1;PMS_P2;Temp;Humidity;BMP_temperature;BMP_pressure;BME280_temperature;BME280_humidity;BME280_pressure;Samples;Min_cycle;Max_cycle;Signal;HPM_P1;HPM_P2
2022/05/30 00:01:09;;;;;;;2.03;1.83;;;;;;;10.36;59.08;98401.69;2618108;54;20033;-65
2022/05/30 00:03:39;;;;;;;1.70;1.60;;;;;;;10.42;59.16;98394.81;2618752;54;20023;-65
2022/05/30 00:06:10;;;;;;;2.55;1.90;;;;;;;10.43;59.05;98401.72;2618727;54;20022;-66
2022/05/30 00:08:40;;;;;;;1.83;1.73;;;;;;;10.38;59.14;98399.69;2618532;54;20038;-65
2022/05/30 00:11:15;;;;;;;2.92;2.00;;;;;;;10.36;59.04;98399.06;2618664;54;20038;-66
2022/05/30 00:13:44;;;;;;;2.55;1.80;;;;;;;10.32;59.00;98399.66;2618957;39;20438;-66
2022/05/30 00:16:17;;;;;;;2.58;1.90;;;;;;;10.29;59.24;98402.75;2621341;54;20158;-66
2022/05/30 00:18:48;;;;;;;1.95;1.85;;;;;;;10.28;59.22;98396.59;2619293;54;20049;-65
2022/05/30 00:21:20;;;;;;;3.33;2.25;;;;;;;10.30;59.20;98407.81;2619014;54;20045;-67
2022/05/30 00:23:53;;;;;;;2.65;1.90;;;;;;;10.30;59.30;98399.88;2619371;54;20045;-65
2022/05/30 00:26:26;;;;;;;2.25;2.00;;;;;;;10.27;59.24;98400.28;2620137;39;20422;-64
2022/05/30 00:28:56;;;;;;;2.20;2.00;;;;;;;10.25;59.25;98394.38;2618869;54;20030;-64
2022/05/30 00:31:25;;;;;;;2.35;1.90;;;;;;;10.12;59.91;98395.16;2618320;47;20026;-64
2022/05/30 00:33:55;;;;;;;2.03;1.90;;;;;;;10.06;60.10;98395.94;2618156;54;20033;-64
2022/05/30 00:36:25;;;;;;;3.28;2.10;;;;;;;10.00;59.93;98387.97;2618885;54;20030;-65
2022/05/30 00:38:55;;;;;;;2.72;1.92;;;;;;;9.99;60.18;98387.16;2618531;54;20050;-66
2022/05/30 00:41:28;;;;;;;3.78;2.00;;;;;;;10.02;60.19;98388.59;2618729;54;20038;-65
2022/05/30 00:43:58;;;;;;;3.15;2.72;;;;;;;10.02;60.06;98385.97;2618142;54;20041;-65
2022/05/30 00:46:28;;;;;;;2.83;1.85;;;;;;;9.93;60.46;98383.50;2618407;54;20113;-65
2022/05/30 00:49:02;;;;;;;2.35;1.80;;;;;;;9.90;60.44;98385.72;2618395;54;20227;-65
2022/05/30 00:51:35;;;;;;;3.70;1.90;;;;;;;9.90;60.49;98385.72;2618437;39;20408;-65
2022/05/30 00:54:09;;;;;;;2.03;1.90;;;;;;;9.84;60.14;98381.25;2617975;47;20057;-67
2022/05/30 00:56:46;;;;;;;2.60;1.98;;;;;;;9.83;60.77;98377.78;2618726;54;20058;-65
2022/05/30 00:59:16;;;;;;;2.70;1.60;;;;;;;9.76;60.32;98382.22;2617767;54;20034;-65
2022/05/30 01:01:46;;;;;;;2.90;1.98;;;;;;;9.72;60.67;98374.91;2618656;54;20058;-64
2022/05/30 01:07:01;;;;;;;3.22;1.92;;;;;;;9.67;60.97;98372.84;2618620;39;20690;-66
2022/05/30 01:09:35;;;;;;;2.40;2.17;;;;;;;9.64;60.59;98373.25;2618524;54;20037;-64
2022/05/30 01:12:09;;;;;;;2.38;2.05;;;;;;;9.56;61.36;98368.97;2617802;51;20038;-65
2022/05/30 01:14:42;;;;;;;2.83;2.00;;;;;;;9.51;61.12;98366.09;2617907;54;20057;-65
2022/05/30 01:17:14;;;;;;;2.00;1.88;;;;;;;9.37;61.47;98362.56;2617657;54;20812;-66
2022/05/30 01:19:54;;;;;;;2.30;2.10;;;;;;;9.28;61.84;98365.56;2618288;47;20035;-65
2022/05/30 01:22:52;;;;;;;3.35;2.00;;;;;;;9.25;62.24;98363.31;2618189;47;20045;-65
2022/05/30 01:25:37;;;;;;;2.05;1.92;;;;;;;9.22;62.12;98366.34;2618576;39;20454;-65
2022/05/30 01:28:41;;;;;;;3.20;2.30;;;;;;;9.24;62.32;98365.13;2618100;47;20034;-65
2022/05/30 01:31:11;;;;;;;2.38;2.17;;;;;;;9.31;61.93;98358.09;2618699;47;20030;-66
2022/05/30 01:33:41;;;;;;;3.83;2.13;;;;;;;9.31;62.00;98357.28;2618488;47;20031;-66
2022/05/30 01:36:12;;;;;;;3.47;2.00;;;;;;;9.28;62.36;98357.66;2618694;54;20122;-66
2022/05/30 01:38:42;;;;;;;3.53;2.00;;;;;;;9.33;62.29;98350.78;2622117;54;20023;-66
2022/05/30 01:41:15;;;;;;;2.30;1.98;;;;;;;9.34;62.18;98347.13;2623268;54;20038;-66
2022/05/30 01:43:48;;;;;;;2.80;2.17;;;;;;;9.34;62.22;98339.19;2622726;54;20041;-66
2022/05/30 01:46:23;;;;;;;3.03;2.47;;;;;;;9.35;61.85;98350.59;2622036;54;20030;-66
2022/05/30 01:48:56;;;;;;;2.45;2.20;;;;;;;9.34;61.71;98349.75;2618386;54;20038;-66
2022/05/30 01:51:26;;;;;;;3.83;2.45;;;;;;;9.29;61.73;98351.38;2618627;54;20035;-67
2022/05/30 01:54:00;;;;;;;2.40;2.20;;;;;;;9.22;61.86;98340.75;2621806;31;20546;-67
2022/05/30 01:56:48;;;;;;;2.47;2.20;;;;;;;9.19;62.18;98341.19;2619735;54;20134;-66
2022/05/30 01:59:22;;;;;;;2.15;2.00;;;;;;;8.86;62.49;98335.72;2618436;54;20034;-67
2022/05/30 02:02:11;;;;;;;2.60;2.25;;;;;;;8.58;62.76;98340.97;2618827;54;20038;-67
2022/05/30 02:04:41;;;;;;;2.40;2.20;;;;;;;8.52;63.14;98347.81;2617854;54;20071;-66
2022/05/30 02:07:11;;;;;;;5.30;2.33;;;;;;;8.38;63.90;98344.25;2618523;54;20030;-66
2022/05/30 02:09:41;;;;;;;6.18;2.38;;;;;;;8.32;64.55;98337.06;2617796;54;20022;-66
2022/05/30 02:12:13;;;;;;;2.70;2.03;;;;;;;8.30;64.34;98336.47;2617557;54;20026;-66
2022/05/30 02:14:51;;;;;;;2.50;2.30;;;;;;;8.40;64.51;98329.06;2617465;47;20042;-65
2022/05/30 02:17:18;;;;;;;3.05;2.78;;;;;;;8.37;63.69;98332.09;2617508;47;20030;-65
2022/05/30 02:19:48;;;;;;;2.80;2.60;;;;;;;8.22;64.46;98336.59;2618264;54;20034;-65
2022/05/30 02:22:20;;;;;;;2.97;2.47;;;;;;;8.09;64.85;98334.66;2619282;54;20547;-66
2022/05/30 02:24:51;;;;;;;3.92;2.70;;;;;;;8.00;64.67;98334.94;2622709;47;20118;-65
2022/05/30 02:27:21;;;;;;;4.30;2.58;;;;;;;7.93;65.40;98332.25;2619853;47;20050;-66
2022/05/30 02:29:54;;;;;;;2.83;2.25;;;;;;;8.10;65.29;98336.28;2617940;54;20126;-66
2022/05/30 02:32:26;;;;;;;3.53;2.50;;;;;;;8.26;65.16;98331.75;2618072;54;20049;-67
2022/05/30 02:37:39;;;;;;;36.70;23.52;;;;;;;8.37;64.26;98336.56;2617925;39;20477;-66
2022/05/30 02:40:28;;;;;;;22.95;16.38;;;;;;;8.26;64.44;98331.75;2618264;54;20031;-66
2022/05/30 02:43:26;;;;;;;19.95;9.82;;;;;;;8.18;64.43;98330.88;2618438;46;20053;-65
2022/05/30 02:45:59;;;;;;;3.67;3.22;;;;;;;7.90;64.97;98322.91;2618280;54;20113;-66
2022/05/30 02:48:29;;;;;;;2.88;2.63;;;;;;;7.77;65.39;98330.66;2617090;54;20023;-66
2022/05/30 02:50:59;;;;;;;3.70;2.65;;;;;;;7.59;66.29;98322.34;2617276;54;20053;-66
2022/05/30 02:53:29;;;;;;;2.97;2.60;;;;;;;7.76;65.98;98323.78;2617319;47;20030;-66
2022/05/30 02:56:31;;;;;;;3.22;2.75;;;;;;;7.92;65.79;98323.56;2617872;54;20033;-64
2022/05/30 02:59:01;;;;;;;3.30;2.75;;;;;;;7.97;65.43;98330.06;2617606;46;20095;-67
2022/05/30 03:01:38;;;;;;;2.80;2.60;;;;;;;7.93;65.04;98335.69;2617407;54;20035;-64
2022/05/30 03:04:08;;;;;;;3.25;2.95;;;;;;;7.88;64.97;98329.38;2618463;39;20431;-65
2022/05/30 03:06:38;;;;;;;3.40;3.10;;;;;;;7.78;64.93;98332.28;2617471;54;20030;-65
2022/05/30 03:09:08;;;;;;;3.70;3.20;;;;;;;7.85;65.64;98329.75;2618025;54;20043;-66
2022/05/30 03:12:08;;;;;;;2.97;2.78;;;;;;;7.93;65.12;98338.34;2617735;54;20045;-65
2022/05/30 03:14:38;;;;;;;3.17;2.92;;;;;;;7.90;65.14;98341.34;2617999;54;20042;-66
2022/05/30 03:17:11;;;;;;;3.05;2.70;;;;;;;7.84;65.02;98349.19;2617198;47;20030;-66
2022/05/30 03:19:46;;;;;;;4.88;3.08;;;;;;;7.78;65.55;98357.78;2617305;54;20042;-65
2022/05/30 03:22:15;;;;;;;3.85;2.97;;;;;;;7.80;65.34;98361.06;2617302;51;20022;-66
2022/05/30 03:25:06;;;;;;;3.42;3.10;;;;;;;7.46;65.65;98357.22;2617919;54;20050;-65
2022/05/30 03:27:36;;;;;;;3.35;3.05;;;;;;;7.40;65.96;98361.41;2617731;47;20031;-65
2022/05/30 03:30:07;;;;;;;5.50;3.30;;;;;;;7.45;66.00;98360.84;2618429;54;20030;-65
2022/05/30 03:32:41;;;;;;;3.65;2.75;;;;;;;7.54;66.24;98364.19;2618270;54;20034;-64
2022/05/30 03:35:11;;;;;;;3.80;3.50;;;;;;;7.66;66.06;98368.78;2618496;54;20022;-66
2022/05/30 03:37:47;;;;;;;3.53;3.22;;;;;;;7.58;65.96;98370.72;2617881;54;20026;-67
2022/05/30 03:40:52;;;;;;;4.60;4.00;;;;;;;7.48;65.64;98373.63;2618015;54;20057;-66
2022/05/30 03:43:40;;;;;;;2.83;2.58;;;;;;;7.43;66.29;98374.19;2618713;54;20034;-65
2022/05/30 03:46:10;;;;;;;6.75;4.10;;;;;;;7.51;65.63;98377.69;2617880;50;20030;-66
2022/05/30 03:48:43;;;;;;;4.32;3.88;;;;;;;7.50;66.07;98379.53;2618237;54;20030;-66
2022/05/30 03:51:14;;;;;;;3.88;3.25;;;;;;;7.49;65.86;98385.78;2618689;54;20034;-65
2022/05/30 03:53:46;;;;;;;3.90;3.45;;;;;;;7.52;66.18;98384.63;2618867;39;20533;-65
2022/05/30 03:56:16;;;;;;;3.22;3.00;;;;;;;7.48;65.68;98385.97;2618158;54;20654;-65
2022/05/30 03:58:46;;;;;;;4.47;4.07;;;;;;;7.51;66.18;98394.31;2618044;54;20023;-65
2022/05/30 04:01:16;;;;;;;3.90;3.50;;;;;;;7.44;65.64;98393.41;2617998;51;20061;-65
2022/05/30 04:03:48;;;;;;;3.60;3.30;;;;;;;7.47;65.85;98387.78;2618678;54;20040;-65
2022/05/30 04:06:18;;;;;;;3.15;2.85;;;;;;;7.47;66.00;98389.59;2618185;50;20093;-66
2022/05/30 04:08:48;;;;;;;3.67;3.22;;;;;;;7.55;66.16;98392.13;2617888;47;20078;-66
2022/05/30 04:11:41;;;;;;;3.33;3.03;;;;;;;7.70;66.04;98398.19;2618416;54;20046;-67
2022/05/30 04:14:31;;;;;;;3.42;3.13;;;;;;;7.66;65.54;98395.09;2618717;54;20589;-66
2022/05/30 04:17:11;;;;;;;3.40;3.10;;;;;;;7.82;65.68;98398.53;2618015;51;20034;-65
2022/05/30 04:19:43;;;;;;;5.28;3.25;;;;;;;7.64;65.31;98393.66;2618528;54;20081;-65
2022/05/30 04:22:16;;;;;;;3.85;3.17;;;;;;;7.50;65.19;98386.59;2618010;47;20031;-65
2022/05/30 04:25:05;;;;;;;3.10;2.90;;;;;;;7.52;65.36;98400.41;2619154;39;20434;-67
2022/05/30 04:27:35;;;;;;;3.80;3.50;;;;;;;7.51;65.90;98399.59;2617890;54;20598;-66
2022/05/30 04:30:05;;;;;;;3.80;3.40;;;;;;;7.59;65.62;98399.50;2619439;31;20545;-65
2022/05/30 04:32:41;;;;;;;3.88;3.47;;;;;;;7.61;65.31;98392.22;2617838;47;20087;-65
2022/05/30 04:35:14;;;;;;;4.05;3.58;;;;;;;7.77;65.49;98398.28;2618066;51;20026;-65
2022/05/30 04:37:45;;;;;;;4.30;3.90;;;;;;;7.92;64.80;98394.63;2618019;54;20530;-65
2022/05/30 04:40:44;;;;;;;4.70;3.38;;;;;;;8.08;64.86;98398.84;2618106;51;20034;-65
2022/05/30 04:43:23;;;;;;;4.32;3.67;;;;;;;8.23;64.58;98400.59;2619086;54;20038;-66
2022/05/30 04:46:15;;;;;;;3.70;3.38;;;;;;;8.41;64.52;98404.47;2620616;54;20058;-67
2022/05/30 04:48:49;;;;;;;3.70;3.40;;;;;;;8.55;63.44;98401.94;2622442;47;20034;-65
2022/05/30 04:51:22;;;;;;;4.65;3.80;;;;;;;8.62;63.62;98408.91;2622762;54;20070;-66
2022/05/30 04:53:52;;;;;;;4.07;3.72;;;;;;;8.78;63.12;98409.66;2622527;47;20542;-66
2022/05/30 04:56:45;;;;;;;4.10;2.78;;;;;;;8.85;63.03;98408.69;2622903;54;20049;-66
2022/05/30 04:59:25;;;;;;;7.72;5.47;;;;;;;9.07;62.52;98412.09;2621919;54;20034;-65
2022/05/30 05:02:01;;;;;;;5.65;3.80;;;;;;;9.09;61.67;98409.25;2621383;47;20034;-65
2022/05/30 05:04:32;;;;;;;4.25;3.25;;;;;;;9.01;61.32;98407.56;2621351;54;20561;-65
2022/05/30 05:07:06;;;;;;;4.70;4.00;;;;;;;9.10;61.70;98405.59;2621162;54;20057;-65
2022/05/30 05:09:47;;;;;;;4.30;3.90;;;;;;;9.15;61.72;98409.31;2620468;54;20125;-66
2022/05/30 05:12:37;;;;;;;4.50;3.80;;;;;;;9.17;61.68;98411.75;2620886;47;20030;-66
2022/05/30 05:15:32;;;;;;;6.55;4.53;;;;;;;9.25;61.74;98405.50;2621358;54;20169;-64
2022/05/30 05:18:09;;;;;;;4.50;4.10;;;;;;;9.31;61.76;98410.84;2620395;54;20034;-66
2022/05/30 05:20:41;;;;;;;5.53;3.70;;;;;;;9.34;60.83;98414.88;2621025;54;20037;-66
2022/05/30 05:23:14;;;;;;;3.97;3.58;;;;;;;9.25;61.56;98410.78;2620018;54;20049;-66
2022/05/30 05:25:54;;;;;;;3.70;3.40;;;;;;;9.28;61.12;98413.03;2618129;54;20027;-65
2022/05/30 05:28:41;;;;;;;4.47;3.97;;;;;;;9.34;61.06;98414.88;2617885;46;20057;-67
2022/05/30 05:31:12;;;;;;;4.95;4.20;;;;;;;9.39;61.54;98415.97;2618193;54;20034;-67
2022/05/30 05:33:42;;;;;;;7.10;4.20;;;;;;;9.63;61.50;98421.75;2617654;54;20027;-65
2022/05/30 05:36:11;;;;;;;7.20;5.53;;;;;;;9.77;61.78;98422.63;2618611;54;20129;-66
2022/05/30 05:38:44;;;;;;;6.30;5.50;;;;;;;9.92;61.50;98418.84;2617781;54;20153;-66
2022/05/30 05:41:27;;;;;;;5.93;5.03;;;;;;;9.92;61.22;98420.69;2617843;54;20174;-67
2022/05/30 05:44:02;;;;;;;6.78;5.68;;;;;;;9.87;62.01;98420.44;2618244;50;20022;-66
2022/05/30 05:46:33;;;;;;;8.90;6.20;;;;;;;9.92;62.08;98420.69;2619178;54;20114;-65
2022/05/30 05:49:06;;;;;;;8.70;6.15;;;;;;;10.08;61.86;98419.50;2618184;54;20030;-65
2022/05/30 05:51:35;;;;;;;7.32;6.55;;;;;;;10.14;61.69;98424.81;2618517;54;20034;-66
2022/05/30 05:54:11;;;;;;;6.95;6.07;;;;;;;10.17;61.58;98423.59;2617857;47;20025;-64
2022/05/30 05:56:42;;;;;;;8.07;7.10;;;;;;;10.24;61.68;98423.59;2618120;47;20037;-66
2022/05/30 05:59:23;;;;;;;8.02;7.18;;;;;;;10.27;61.29;98423.25;2617703;47;20034;-65
2022/05/30 06:01:53;;;;;;;6.15;5.55;;;;;;;10.38;61.78;98431.41;2618118;47;20026;-65
2022/05/30 06:04:25;;;;;;;8.30;6.15;;;;;;;10.40;61.10;98433.81;2617866;47;20535;-65
2022/05/30 06:07:13;;;;;;;10.00;6.32;;;;;;;10.45;61.57;98426.13;2618448;54;20034;-65
2022/05/30 06:10:17;;;;;;;6.95;5.75;;;;;;;10.63;61.39;98430.81;2617348;39;20464;-66
2022/05/30 06:12:57;;;;;;;7.90;6.43;;;;;;;10.54;60.33;98424.94;2617594;54;20027;-66
2022/05/30 06:15:28;;;;;;;7.40;6.28;;;;;;;10.43;61.17;98436.09;2618347;39;20442;-65
2022/05/30 06:18:18;;;;;;;6.22;5.43;;;;;;;10.41;61.51;98440.75;2618054;54;20129;-64
2022/05/30 06:20:48;;;;;;;6.88;6.18;;;;;;;10.38;61.78;98430.59;2617831;52;20026;-64
2022/05/30 06:23:18;;;;;;;7.97;5.88;;;;;;;10.54;61.95;98435.50;2617682;47;20333;-64
2022/05/30 06:26:28;;;;;;;7.72;6.00;;;;;;;10.74;61.71;98442.66;2618023;54;20054;-65
2022/05/30 06:29:25;;;;;;;6.57;5.88;;;;;;;11.01;61.20;98441.63;2618141;54;20057;-65
2022/05/30 06:31:55;;;;;;;6.70;6.00;;;;;;;11.23;60.26;98433.47;2617677;47;20038;-66
2022/05/30 06:34:26;;;;;;;6.30;5.70;;;;;;;11.37;59.96;98435.88;2617240;47;20038;-65
2022/05/30 09:39:02;;;;;;;4.28;2.00;;;;;;;15.70;44.38;98430.47;2601128;46;20576;-65
2022/05/30 09:41:51;;;;;;;2.63;2.17;;;;;;;15.45;44.60;98436.03;2620900;47;20030;-67
2022/05/30 09:44:28;;;;;;;6.65;2.53;;;;;;;15.49;44.49;98424.66;2622323;54;20026;-66
2022/05/30 09:47:18;;;;;;;3.75;1.50;;;;;;;15.82;44.69;98428.56;2621683;54;20040;-65
2022/05/30 09:50:17;;;;;;;3.75;1.40;;;;;;;16.06;44.07;98426.66;2622371;54;20044;-64
2022/05/30 09:52:47;;;;;;;2.15;1.50;;;;;;;16.19;43.79;98429.03;2622488;54;20026;-64
2022/05/30 09:55:33;;;;;;;1.98;1.50;;;;;;;16.24;43.44;98425.66;2621138;47;20037;-67
2022/05/30 09:58:12;;;;;;;1.92;1.30;;;;;;;16.25;42.99;98424.63;2620349;47;20615;-65
2022/05/30 10:01:00;;;;;;;2.53;1.52;;;;;;;16.24;42.81;98423.78;2619585;47;20026;-65
2022/05/30 10:03:38;;;;;;;1.92;1.30;;;;;;;16.43;43.49;98420.94;2620143;47;20038;-64
2022/05/30 10:06:24;;;;;;;1.73;1.38;;;;;;;16.71;42.16;98428.13;2619074;54;20121;-64
2022/05/30 10:09:20;;;;;;;2.55;1.40;;;;;;;16.71;42.27;98423.56;2618130;47;20538;-65
2022/05/30 10:11:59;;;;;;;2.03;1.52;;;;;;;16.68;42.41;98429.38;2618099;47;20030;-65
2022/05/30 10:14:35;;;;;;;2.63;2.00;;;;;;;16.80;41.94;98424.00;2617856;54;20026;-65
2022/05/30 10:17:17;;;;;;;2.15;1.40;;;;;;;16.66;42.59;98422.69;2618912;54;20129;-64
2022/05/30 10:19:51;;;;;;;2.42;1.63;;;;;;;16.43;42.68;98431.63;2618442;54;20034;-63
2022/05/30 10:28:52;;;;;;;3.30;1.38;;;;;;;15.96;43.82;98437.94;2617379;47;20142;-64
2022/05/30 10:31:51;;;;;;;1.65;1.42;;;;;;;15.99;44.28;98437.44;2618248;54;20130;-64
2022/05/30 10:34:51;;;;;;;2.20;1.60;;;;;;;15.99;43.61;98437.44;2617519;54;20034;-65
2022/05/30 10:37:39;;;;;;;3.53;1.50;;;;;;;15.80;43.94;98442.16;2618355;54;20031;-65
2022/05/30 10:40:20;;;;;;;1.92;1.60;;;;;;;15.74;43.45;98453.72;2619673;54;20023;-64
2022/05/30 10:42:57;;;;;;;4.22;1.67;;;;;;;15.63;43.23;98451.06;2623599;54;20027;-64
2022/05/30 10:45:40;;;;;;;1.98;1.35;;;;;;;15.53;43.98;98457.78;2622931;47;20126;-64
2022/05/30 10:48:18;;;;;;;4.05;1.60;;;;;;;15.64;44.22;98450.03;2619113;47;20126;-67
2022/05/30 10:50:55;;;;;;;6.78;1.73;;;;;;;15.75;44.04;98454.53;2622033;54;20557;-66
2022/05/30 10:53:35;;;;;;;3.03;1.67;;;;;;;15.71;43.50;98459.53;2622347;48;20031;-64
2022/05/30 10:56:29;;;;;;;5.22;2.58;;;;;;;15.89;44.02;98455.13;2622640;54;20065;-64
2022/05/30 10:59:09;;;;;;;3.08;1.60;;;;;;;16.21;43.73;98453.63;2620181;54;20030;-64
2022/05/30 11:01:50;;;;;;;21.20;2.72;;;;;;;16.68;43.39;98460.59;2619270;39;20443;-64
2022/05/30 11:04:40;;;;;;;2.83;1.73;;;;;;;16.96;41.28;98457.91;2619795;54;20523;-62
2022/05/30 11:07:30;;;;;;;15.63;2.45;;;;;;;16.95;41.76;98455.50;2619031;54;20034;-64
2022/05/30 11:10:06;;;;;;;8.70;1.60;;;;;;;17.14;41.30;98456.84;2618723;47;20857;-64
2022/05/30 11:12:41;;;;;;;4.10;1.45;;;;;;;17.38;40.44;98456.69;2618812;47;20046;-63
2022/05/30 11:15:21;;;;;;;1.88;1.20;;;;;;;17.28;40.54;98460.84;2618661;54;20034;-63
2022/05/30 11:18:39;;;;;;;4.18;1.60;;;;;;;17.12;40.13;98464.31;2619293;54;20085;-64
2022/05/30 11:21:31;;;;;;;1.95;1.52;;;;;;;17.08;40.41;98455.97;2618706;47;20531;-64
2022/05/30 11:24:03;;;;;;;2.53;1.45;;;;;;;16.92;41.00;98462.13;2618916;39;20710;-63
2022/05/30 11:27:06;;;;;;;8.45;2.88;;;;;;;16.90;41.33;98458.91;2619052;54;20038;-64
2022/05/30 11:30:00;;;;;;;4.22;1.90;;;;;;;17.28;40.38;98457.34;2618969;54;20595;-65
2022/05/30 11:32:49;;;;;;;4.80;1.70;;;;;;;17.46;40.03;98453.59;2619159;54;20026;-64
2022/05/30 11:35:32;;;;;;;12.45;1.40;;;;;;;17.19;40.20;98451.63;2618839;54;20032;-64
2022/05/30 11:38:16;;;;;;;5.33;1.50;;;;;;;17.04;40.16;98456.72;2618194;54;20042;-64
2022/05/30 11:40:55;;;;;;;4.53;1.42;;;;;;;17.06;40.31;98463.44;2618655;54;20041;-64
2022/05/30 11:43:40;;;;;;;3.10;1.40;;;;;;;16.99;39.49;98456.63;2618940;39;20434;-64
2022/05/30 11:46:20;;;;;;;2.17;1.05;;;;;;;16.94;39.29;98448.53;2618358;54;20030;-64
2022/05/30 11:48:59;;;;;;;3.50;1.38;;;;;;;17.26;39.41;98457.59;2618638;46;20064;-64
2022/05/30 11:51:44;;;;;;;2.30;1.35;;;;;;;17.39;38.94;98452.94;2619599;54;20034;-63
2022/05/30 11:54:35;;;;;;;3.38;1.55;;;;;;;17.51;38.49;98451.00;2623626;54;20026;-62
2022/05/30 11:57:17;;;;;;;3.13;1.67;;;;;;;17.42;38.56;98441.78;2619764;54;20026;-62
2022/05/30 12:00:01;;;;;;;1.40;1.30;;;;;;;17.32;39.08;98447.81;2619227;54;20033;-62
2022/05/30 12:02:59;;;;;;;1.73;1.13;;;;;;;17.52;38.57;98448.09;2619349;39;20446;-64
2022/05/30 12:05:55;;;;;;;1.52;1.20;;;;;;;17.16;37.94;98448.63;2618500;54;20038;-64
2022/05/30 12:08:57;;;;;;;2.10;1.25;;;;;;;17.21;37.50;98446.81;2617362;54;20057;-65
2022/05/30 12:11:49;;;;;;;2.55;1.63;;;;;;;17.28;37.09;98450.16;2619028;54;20546;-63
2022/05/30 12:14:35;;;;;;;13.23;1.92;;;;;;;17.37;36.91;98447.06;2618881;54;20065;-64
2022/05/30 12:17:24;;;;;;;1.05;0.88;;;;;;;17.34;36.73;98453.69;2618847;54;20038;-63
2022/05/30 12:25:53;;;;;;;1.80;1.02;;;;;;;17.73;35.64;98441.16;2619852;54;20053;-65
2022/05/30 12:28:52;;;;;;;1.42;1.33;;;;;;;18.01;35.62;98432.19;2618941;54;20030;-64
2022/05/30 12:31:39;;;;;;;1.42;1.10;;;;;;;18.44;34.92;98433.16;2623333;54;20037;-65
2022/05/30 12:34:09;;;;;;;1.52;1.10;;;;;;;18.81;34.42;98425.25;2623137;54;20039;-64
2022/05/30 12:36:47;;;;;;;1.42;1.00;;;;;;;19.22;33.00;98430.91;2620833;54;20046;-64
2022/05/30 12:39:34;;;;;;;1.92;1.63;;;;;;;19.47;32.84;98421.41;2619075;54;20030;-63
2022/05/30 12:42:10;;;;;;;2.13;1.90;;;;;;;19.74;33.03;98427.50;2619464;54;20565;-64
2022/05/30 12:44:54;;;;;;;1.58;1.25;;;;;;;20.21;31.59;98418.56;2618722;54;20122;-65
2022/05/30 12:47:32;;;;;;;1.73;1.20;;;;;;;20.31;31.85;98417.75;2618760;54;20038;-63
2022/05/30 12:50:26;;;;;;;0.90;0.82;;;;;;;20.62;31.18;98415.97;2619176;54;20039;-63
2022/05/30 12:52:59;;;;;;;3.08;1.42;;;;;;;20.77;30.85;98412.47;2619091;54;20038;-63
2022/05/30 12:55:39;;;;;;;2.67;1.10;;;;;;;20.68;30.28;98414.91;2619318;54;20555;-63
2022/05/30 12:58:15;;;;;;;0.93;0.80;;;;;;;20.18;30.71;98424.44;2618662;54;20038;-63
2022/05/30 13:00:54;;;;;;;1.42;1.00;;;;;;;19.91;31.15;98424.59;2618463;54;20040;-64
2022/05/30 13:03:27;;;;;;;1.83;1.35;;;;;;;20.16;31.01;98421.22;2618587;47;20050;-62
2022/05/30 13:06:14;;;;;;;;;;;;;;;20.22;30.47;98422.84;2619297;54;20038;-63
2022/05/30 13:09:17;;;;;;;8.00;1.10;;;;;;;19.88;30.49;98417.09;2617704;47;20430;-64
2022/05/30 13:12:11;;;;;;;2.47;1.10;;;;;;;19.69;31.04;98424.78;2618447;54;20045;-64
2022/05/30 13:15:06;;;;;;;8.20;6.32;;;;;;;19.50;31.27;98429.75;2618981;54;20064;-65
2022/05/30 13:17:46;;;;;;;2.28;1.30;;;;;;;19.47;31.24;98421.41;2618757;47;20038;-63
2022/05/30 13:20:19;;;;;;;2.40;1.10;;;;;;;19.57;31.07;98424.16;2618759;54;20038;-63
2022/05/30 13:22:53;;;;;;;1.67;0.90;;;;;;;19.57;30.82;98424.16;2619657;39;20429;-63
2022/05/30 13:25:28;;;;;;;2.25;0.80;;;;;;;19.94;30.67;98420.59;2619215;54;20026;-64
2022/05/30 13:28:05;;;;;;;1.10;0.90;;;;;;;19.91;31.19;98431.84;2622330;54;20030;-64
2022/05/30 13:30:39;;;;;;;4.75;1.45;;;;;;;19.67;30.81;98432.28;2623147;47;20038;-64
2022/05/30 13:33:15;;;;;;;2.22;1.17;;;;;;;19.47;31.91;98424.94;2623499;54;20022;-63
2022/05/30 13:35:45;;;;;;;2.65;1.20;;;;;;;19.82;31.98;98428.06;2624241;54;20530;-64
2022/05/30 13:38:17;;;;;;;1.02;0.80;;;;;;;20.09;31.41;98422.53;2623989;54;20022;-63
2022/05/30 13:40:49;;;;;;;2.30;0.80;;;;;;;19.67;31.69;98424.22;2621850;54;20022;-65
2022/05/30 13:43:23;;;;;;;1.42;0.80;;;;;;;19.67;31.47;98420.75;2618911;54;20157;-64
2022/05/30 13:46:16;;;;;;;2.27;0.97;;;;;;;19.75;31.45;98421.06;2618325;47;20034;-63
2022/05/30 13:48:49;;;;;;;1.33;0.90;;;;;;;19.24;31.38;98430.66;2618652;54;20098;-64
2022/05/30 13:51:31;;;;;;;2.95;0.80;;;;;;;19.40;31.15;98435.06;2618863;54;20133;-64
2022/05/30 13:54:02;;;;;;;1.35;0.93;;;;;;;19.58;31.04;98430.31;2618619;54;20061;-64
2022/05/30 13:56:36;;;;;;;1.40;0.90;;;;;;;19.36;30.95;98420.56;2618759;54;20030;-63
2022/05/30 13:59:20;;;;;;;1.20;0.80;;;;;;;19.70;31.15;98415.66;2618571;54;20038;-63
2022/05/30 14:01:58;;;;;;;;;;;;;;;19.95;31.33;98414.97;2619048;54;20030;-63
2022/05/30 14:04:35;;;;;;;2.08;0.82;;;;;;;19.94;31.45;98415.25;2618593;54;19946;-64
2022/05/30 14:07:07;;;;;;;2.03;1.10;;;;;;;19.27;33.05;98420.25;2618963;54;20041;-63
2022/05/30 14:09:37;;;;;;;2.80;0.95;;;;;;;18.89;34.68;98418.59;2618545;54;20023;-63
2022/05/30 14:12:08;;;;;;;2.08;1.08;;;;;;;18.37;36.19;98426.41;2618627;54;20031;-64
2022/05/30 14:15:08;;;;;;;2.75;1.10;;;;;;;17.99;36.57;98423.56;2618296;47;20061;-64
2022/05/30 14:17:41;;;;;;;2.13;1.10;;;;;;;18.01;37.03;98423.34;2618805;54;20130;-64
2022/05/30 14:20:14;;;;;;;3.47;1.10;;;;;;;18.21;35.79;98422.78;2623245;54;20046;-64
2022/05/30 14:22:53;;;;;;;2.70;1.20;;;;;;;18.68;36.04;98417.59;2623745;54;20034;-64
2022/05/30 14:25:29;;;;;;;1.92;1.45;;;;;;;19.09;35.00;98409.91;2619173;54;20041;-64
2022/05/30 14:28:00;;;;;;;2.35;1.27;;;;;;;19.29;34.33;98415.41;2618914;54;20026;-64
2022/05/30 14:30:33;;;;;;;10.32;1.48;;;;;;;19.47;33.85;98418.72;2618703;54;20565;-64
2022/05/30 14:33:27;;;;;;;2.17;1.27;;;;;;;19.51;33.20;98412.63;2622018;54;20045;-64
2022/05/30 14:36:24;;;;;;;2.35;1.10;;;;;;;19.11;34.47;98412.38;2623322;39;20431;-65
2022/05/30 14:39:02;;;;;;;2.92;1.20;;;;;;;19.00;33.96;98411.47;2622547;54;20121;-66
2022/05/30 14:41:36;;;;;;;4.38;1.20;;;;;;;18.70;34.58;98423.56;2624295;54;20031;-64
2022/05/30 14:44:06;;;;;;;2.38;1.38;;;;;;;18.63;34.44;98420.25;2623701;54;20102;-65
2022/05/30 14:46:40;;;;;;;1.00;0.98;;;;;;;18.50;34.14;98420.66;2620174;54;20038;-65
2022/05/30 14:49:16;;;;;;;0.82;0.82;;;;;;;18.44;34.37;98416.31;2618481;47;20034;-65
2022/05/30 14:51:53;;;;;;;1.00;1.00;;;;;;;18.44;34.75;98414.44;2619172;54;20119;-63
2022/05/30 14:54:39;;;;;;;2.08;1.25;;;;;;;18.66;34.21;98409.03;2618972;54;20026;-64
2022/05/30 14:57:15;;;;;;;3.25;1.38;;;;;;;18.64;34.50;98410.34;2618511;54;20055;-65
2022/05/30 14:59:46;;;;;;;2.95;1.13;;;;;;;18.23;34.04;98426.78;2619856;54;20581;-63
2022/05/30 15:04:02;;;;;;;2.72;1.30;;;;;;;18.13;33.98;98421.34;2620899;54;20030;-63
2022/05/30 15:05:09;;;;;;;7.55;5.22;;;;;;;18.40;34.54;98420.53;2620807;54;20030;-64
2022/05/30 15:07:44;;;;;;;3.10;1.13;;;;;;;18.64;34.87;98426.41;2620695;54;20045;-65
2022/05/30 15:10:22;;;;;;;2.63;1.08;;;;;;;18.86;34.65;98426.34;2620733;54;20018;-64
2022/05/30 15:12:52;;;;;;;2.50;1.20;;;;;;;19.29;34.06;98422.66;2620522;54;20056;-63
2022/05/30 15:15:23;;;;;;;1.90;1.05;;;;;;;19.15;34.06;98424.19;2620318;54;20090;-64
2022/05/30 15:17:53;;;;;;;4.30;1.20;;;;;;;18.94;34.50;98433.91;2620836;54;20037;-64
2022/05/30 15:20:23;;;;;;;3.15;1.27;;;;;;;19.05;33.87;98433.72;2618846;54;20027;-64
2022/05/30 15:22:58;;;;;;;1.92;1.13;;;;;;;18.92;34.34;98431.50;2618710;54;20067;-64
2022/05/30 15:25:30;;;;;;;2.65;1.20;;;;;;;18.77;34.21;98426.00;2619464;54;20041;-66
2022/05/30 15:28:00;;;;;;;4.18;1.40;;;;;;;18.62;34.19;98424.00;2620401;54;20078;-65
2022/05/30 15:30:30;;;;;;;1.40;1.10;;;;;;;18.63;34.53;98427.47;2619029;47;20042;-64
2022/05/30 15:33:00;;;;;;;2.13;1.20;;;;;;;18.72;34.45;98431.31;2619327;54;20647;-63
2022/05/30 15:35:30;;;;;;;1.20;1.10;;;;;;;18.67;34.24;98418.66;2618408;54;20027;-64
2022/05/30 15:38:00;;;;;;;3.63;1.30;;;;;;;18.70;34.86;98418.19;2618919;54;20060;-63
2022/05/30 15:40:33;;;;;;;2.47;1.38;;;;;;;18.65;34.60;98420.78;2618333;54;20030;-63
2022/05/30 15:43:03;;;;;;;1.85;1.00;;;;;;;18.56;34.97;98419.63;2618931;54;20038;-63
2022/05/30 15:45:37;;;;;;;1.45;1.05;;;;;;;18.59;34.16;98421.00;2619634;39;20543;-63
2022/05/30 15:48:08;;;;;;;1.60;1.40;;;;;;;18.55;33.92;98426.06;2618584;54;20065;-65